Create Custom Reports and Graphics: Custom Report

Latest 15 Minute Observations

Map

15 Minute Data

Latest Observation

38 Stations

15 Minute Data | America/Los_Angeles
as of 7/15/24 4:10 PM PDT
Station Date Time Temp (°F) RH (%) Dew Pt (°F) Wind Spd (mph) Wind Dir (°) Wind Gust (mph) Latest Rain (In) Daily Rain (In) Daily Min Temp (°F) Daily Max Temp (°F) Daily Max Wind (mph)
Upper Lake 7/15/24 1600 94.9   3.0 27   3 55.4   0.3 4.8 SSE | 158 10.4   0.1 0.00 0.00 56.1   9.7 96.2   2.6 14.1   2.2
Scotts Valley 7/15/24 1600 94.9   4.5 20   4 47.8   1.8 4.0 SSW | 200 13.0   3.3 0.00 0.00 53.8   7.3 98.8   2.0 13.0   3.3
Scotts Valley-South (Bella Vista) 7/15/24 1600 91.9   4.0 19   6 43.9   7.5 5.1 SSW | 210 9.5   0.1 0.00 0.00 56.8   6.5 96.3   2.6 13.1   2.1
Kelseyville 7/15/24 1600 93.0   3.5 23   3 49.7   0.4 6.1 WSW | 242 14.5   4.6 0.00 0.00 57.8   5.6 98.0   1.2 14.5   3.7
Kelseyville Remote 7/15/24 1600 94.6   4.2 12   3 34.2   2.7 - - - 0.00 0.00 59.8   5.7 99.7   1.7 -
Kelseyville (Clark Drive) 7/15/24 1600 95.3   4.5 - - - - - 0.00 0.00 55.9   7.9 99.1   2.6 -
Kelsey Bench (Oaklea) 7/15/24 1600 92.2   4.5 18   5 42.3   5.0 9.3 WSW | 244 15.9   4.9 0.00 0.00 62.0   4.7 96.4   1.8 17.2   5.1
Smith Lane (Kelseyville-South) 7/15/24 1600 92.4   5.5 17   3 40.8   0.6 10.6 SW | 229 18.3   5.6 0.00 0.00 57.2   6.8 97.4   2.4 18.3   5.6
Bell Hill-West 7/15/24 1600 89.2   5.2 24   4 47.3   0.7 11.2 SSW | 213 19.8   6.4 0.00 0.00 59.7   4.5 94.8   2.1 19.8   4.4
Wight Way (Adobe Creek) 7/15/24 1600 96.0   3.6 15   2 41.2   1.6 2.0 SE | 139 7.5   1.1 0.00 0.00 55.6   4.5 98.5   3.5 11.9   2.6
High Valley Ridgeline (Brassfield) 7/15/24 1345 91.8   1.2 23   8 48.8   10.7 5.0 SSE | 151 9.8   0.6 0.00 0.00 68.8   2.5 93.0   0.8 13.4   0.6
Ridgeline Top (Brassfield) 7/15/24 1345 93.3   1.4 - - - - - - - 69.5   1.9 94.9   1.4 -
Ridgeline Low (Brassfield) 7/15/24 1345 93.5   2.2 - - - - - - - 68.8   3.1 94.6   2.2 -
Long Valley (Shannon) 7/15/24 1600 102.1   0.2 - - 5.8 S | 182 10.8   3.3 0.00 0.00 55.1   10.6 103.8   2.2 13.6   2.9
High Valley Winery 7/15/24 1345 94.9   1.5 21   7 48.4   10.0 4.8 SSE | 165 8.2   1.5 0.00 0.00 57.1   11.0 95.6   1.4 11.4   1.3
Round Mtn Rd. 7/15/24 1430 95.3   1.0 - - - - - - - 60.9   8.3 97.3   1.0 -
Circle O 7/15/24 1600 95.0   2.8 - - - - - - - 58.4   9.4 96.7   2.9 -
Robertsbridge Vineyards 7/15/24 1600 96.5   3.0 17   5 44.3   6.2 - - - - - 56.8   6.3 100.7   1.4 -
Urgency Vineyard 7/15/24 1600 95.1   3.2 14   1 37.9   0.4 3.0 ESE | 111 8.3   0.7 0.00 0.00 56.5   10.8 96.2   3.2 9.7   0.5
Red Hills (Beckstoffer) 7/15/24 1600 95.3   3.9 12   0 35.4   3.0 - - - 0.00 0.00 55.3   10.8 97.2   2.8 -
Winters (Shannon) 7/15/24 1600 92.7   5.1 9   0 26.4   2.7 6.7 SE | 128 11.7   1.1 0.00 0.00 53.4   10.4 95.3   3.3 16.7   1.4
Secret Pond (Shannon) 7/15/24 1600 93.7   3.2 10   1 30.1   0.6 3.2 SE | 143 8.6   0.2 0.00 0.00 56.5   9.7 94.8   3.2 11.6   0.4
Rolling Knolls (Shannon) 7/15/24 1600 94.2   5.2 13   4 36.4   5.0 2.4 E | 80 8.0   0.1 0.00 0.00 55.5   6.7 96.8   2.7 10.3   0.6
Lower Lake 7/15/24 1600 94.7   3.1 12   1 34.2   0.2 5.1 E | 90 11.6   1.0 0.00 0.00 61.8   5.8 96.2   2.8 13.3   0.4
Adamson Ranch 7/15/24 1600 98.6   4.0 11   1 35.7   1.5 7.7 SSE | 154 14.2   0.7 0.00 0.00 57.4   8.0 100.3   3.6 18.6   3.1
Middletown (Diamond D) 7/15/24 1600 87.8   6.7 22   0 44.2   6.0 8.1 WSW | 245 15.3   6.7 0.00 0.05 56.7   5.8 95.9   3.8 15.9   1.2
Middletown-West (Atlas VM) 7/15/24 1600 86.1   9.4 20   0 40.7   7.5 15.1 SW | 215 21.9   6.2 0.00 0.00 53.5   7.0 99.3   1.4 21.9   5.8
Middletown-South 7/15/24 1600 89.9   6.7 24   5 48.2   0.1 3.2 WSW | 240 10.1   1.4 0.00 0.00 56.5   5.1 97.1   2.7 10.8   0.3
Jim Davis (Langtry) 7/15/24 1600 92.8   4.5 17   1 41.8   5.0 6.6 SE | 136 10.7   4.3 0.00 0.00 62.4   3.8 94.3   3.7 14.1   1.4
Napa Basin 7/15/24 1600 95.2   3.8 17   3 43.9   6.8 6.3 SSE | 162 11.2   2.3 0.00 0.00 55.1   5.6 95.4   4.9 15.1   0.4
Lower Bohn 7/15/24 1600 93.8   5.6 18   0 44.2   5.1 7.7 S | 170 12.1   0.7 0.00 0.00 54.1   5.3 96.0   4.2 14.6   1.0
Upper Bohn-North 7/15/24 1600 95.0   5.3 14   1 39.0   2.3 4.5 SSW | 192 8.6   2.0 0.00 0.00 59.7   4.1 97.7   4.7 -
Upper Bohn-South 7/15/24 1600 98.4   3.7 - - 2.7 SE | 145 10.3   0.2 0.00 0.00 59.2   4.6 98.7   3.9 -
Morgan Valley 7/15/24 1600 88.9   4.2 17   1 38.8   1.2 8.2 SSE | 148 16.0   3.6 0.00 0.00 70.1   2.7 91.9   1.9 16.0   1.4
Mine Pit North 7/15/24 1600 92.1   2.7 20   0 45.3   1.5 10.7 SSW | 205 19.4   2.2 - - 67.9   0.3 96.3   2.0 19.4   1.9
Mine Pit South 7/15/24 1600 94.2   4.3 13   3 35.1   2.9 7.8 SSW | 213 14.9   1.5 0.00 0.00 67.6   0.1 95.6   3.9 16.0   1.5
Cow Mountain 7/15/24 1600 83.3   3.5 - - 5.4 WSW | 250 10.7   2.6 0.00 0.00 73.1   0.3 88.3   0.8 18.2   1.8
Ukiah-SE (Ruddick) 7/15/24 1600 86.8   6.7 25   4 47.0   1.0 12.9 SE | 145 19.9   5.1 0.00 0.00 54.8   5.2 87.2   6.5 21.4   3.0
Max     102.1 27 55.4 15.1 - 21.9 0.00 0.05 73.1 103.8 21.9
Avg     93.2 17 41.1 6.6 - 13.0 0.00 - - - -
Min     83.3 9 26.4 2.0 - 7.5 0.00 0.00 53.4 87.2 9.7

Yesterday's Daily Summary

38 Stations

Daily Data | America/Los_Angeles
as of 7/15/24 4:10 PM PDT
Station Date Daily Max Temp (°F) Daily Min Temp (°F) Daily Rain (In) Season Precip (In) Wind Spd (mph) Daily Max Wind (mph) Time of Max Wind Max Wind Dir (°) Dew Pt (°F) Max RH (%) Min RH (%) Daily Solar Rad (Cal/cm2) Daily ETo (in) 7 Day ETo (in) Chilling <=45F (hrs) Chilling <=45F Seas (hrs) Hrs 70-85F (hrs) Hrs > 95F (hrs) Powdery Mildew Stress (pts) Daily Leaf Wet (Hrs) GDDs (DL) Seas GDDs (DL) MinBV Day (V)
Upper Lake 7/14/24 98.8   6.4 63.5   7.9 0.00 0.00 2.4 12.8   1.2 2137 N | 2 56.4   2.2 83 13 - - - 0.0 - 4.50 4.83 0 0.0 30.8 1,610 12.3
Scotts Valley 7/14/24 100.8   7.0 60.9   8.0 0.00 0.00 1.5 9.8   1.5 1552 S | 170 55.4   1.2 86 13 - - - 0.0 - 2.64 4.86 0 0.0 29.8 1,588 12.4
Scotts Valley-South (Bella Vista) 7/14/24 98.9   5.4 63.3   5.7 0.00 0.00 1.8 10.9   2.6 1543 S | 182 51.8   2.1 73 11 653 0.240 1.68 0.0 - 5.61 4.37 0 - 30.1 1,646 12.6
Kelseyville 7/14/24 99.2   5.3 63.4   5.5 0.00 0.00 2.5 10.7   4.6 1339 NE | 53 55.1   2.2 82 15 701 0.260 1.86 0.0 - 6.09 4.99 10 0.0 30.3 1,641 12.7
Kelseyville Remote 7/14/24 101.4   5.1 65.5   6.0 0.00 0.00 - - - - 48.3   3.6 65 8 - - - 0.0 - 6.22 6.05 10 - 32.8 1,796 12.8
Kelseyville (Clark Drive) 7/14/24 101.7   4.4 62.9   6.2 0.00 0.00 - - - - - - - - - - 0.0 - 2.53 6.41 0 - 31.0 1,644 12.8
Kelsey Bench (Oaklea) 7/14/24 98.2   5.0 66.7   2.8 0.00 0.00 4.2 14.1   1.7 1807 SW | 221 48.0   3.1 57 10 725 0.296 2.08 0.0 - 7.86 4.82 0 - 32.0 1,740 12.7
Smith Lane (Kelseyville-South) 7/14/24 99.8   5.4 64.0   6.6 0.00 0.00 2.6 14.4   2.2 1744 SSW | 202 51.3   0.6 - - - - - 0.0 - 6.18 6.26 10 0.0 31.9 1,706 12.7
Bell Hill-West 7/14/24 96.9   5.0 64.2   3.5 0.00 0.00 3.5 15.5   0.7 1401 SSW | 197 54.9   2.3 74 15 753 0.297 2.05 0.0 - 6.61 2.48 10 - 30.5 1,658 12.6
Wight Way (Adobe Creek) 7/14/24 102.0   1.7 60.1   5.0 0.00 0.00 2.0 14.5   0.3 1401 W | 274 50.8   3.7 76 9 698 0.256 1.69 0.0 - 2.12 6.43 0 - 30.6 1,684 12.6
High Valley Ridgeline (Brassfield) 7/14/24 96.9   5.3 71.3   3.3 0.00 0.00 5.2 12.8   4.2 0142 W | 259 48.2   1.5 63 8 662 0.294 2.18 0.0 - 15.87 2.17 100 - 32.6 1,796 12.6
Ridgeline Top (Brassfield) 7/14/24 99.5   5.8 71.4   2.7 - - - - - - - - - - - - 0.0 - 15.52 4.35 100 - 33.6 1,876 12.8
Ridgeline Low (Brassfield) 7/14/24 100.0   4.1 70.7   1.4 - - - - - - - - - - - - 0.0 - 14.87 2.94 100 - 33.1 1,845 12.8
Long Valley (Shannon) 7/14/24 106.0   5.0 60.2   5.8 0.00 0.00 2.0 10.6   4.4 1321 SE | 145 - - 12 616 0.240 1.76 0.0 - 4.35 7.39 0 - 31.8 1,750 12.8
High Valley Winery 7/14/24 100.2   7.2 62.1   4.0 0.00 0.00 2.8 12.8   4.0 1256 ESE | 122 47.5   3.6 64 7 - - - 0.0 - 7.15 5.14 10 - 31.5 1,707 12.7
Round Mtn Rd. 7/14/24 99.1   7.1 67.9   5.5 - - - - - - - - - - - - 0.0 - 13.48 5.04 10 - 32.4 1,735 12.7
Circle O 7/14/24 99.6   5.3 65.6   4.5 - - - - - - - - - - - - 0.0 - 7.19 4.60 10 - 30.3 1,633 12.7
Robertsbridge Vineyards 7/14/24 102.1   6.6 63.0   2.5 - - - - - - 48.7   3.1 73 10 - - - 0.0 - 2.16 6.73 0 - 30.3 - 12.6
Urgency Vineyard 7/14/24 99.4   8.5 62.2   2.7 0.00 0.00 2.1 10.2   1.1 1150 NE | 48 49.6   2.1 66 11 655 0.239 1.78 0.0 - 9.72 5.77 20 - 31.4 1,814 12.6
Red Hills (Beckstoffer) 7/14/24 100.0   8.1 60.3   2.7 0.00 0.00 - - - - 48.4   1.9 72 10 - - - 0.0 - 9.45 6.47 10 - 32.0 1,819 12.7
Winters (Shannon) 7/14/24 99.0   7.6 57.5   3.7 0.00 0.00 2.7 15.3   2.0 1358 E | 79 45.0   2.9 69 6 632 0.250 1.78 0.0 - 8.68 5.08 10 - 29.7 1,634 12.8
Secret Pond (Shannon) 7/14/24 98.5   6.1 59.7   2.0 0.00 0.00 1.7 11.2   1.5 1321 SSE | 168 46.0   2.6 71 7 597 0.220 1.70 0.0 - 8.93 4.31 30 - 29.6 1,716 12.8
Rolling Knolls (Shannon) 7/14/24 99.5   6.1 61.1   4.6 0.00 0.00 1.4 9.7   3.9 1350 S | 175 48.8   5.8 75 7 590 0.218 1.56 0.0 - 3.60 4.80 0 - 28.6 1,710 12.7
Lower Lake 7/14/24 99.9   7.6 66.9   0.9 0.00 0.00 2.7 13.7   2.1 1415 E | 98 47.3   4.0 64 8 - - - 0.0 - 8.80 5.59 20 - 31.6 1,919 12.6
Adamson Ranch 7/14/24 103.9   5.9 64.4   5.8 0.00 0.00 2.3 18.0   0.2 1714 S | 174 46.0   3.7 62 6 - - - 0.0 - 4.53 7.65 0 - 31.7 1,805 12.6
Middletown (Diamond D) 7/14/24 99.7   6.2 62.5   3.1 0.78 0.78 2.7 14.6   3.6 1502 S | 180 51.9   0.1 70 10 303 0.149 1.19 0.0 - 2.78 2.64 0 - 28.1 1,835 12.6
Middletown-West (Atlas VM) 7/14/24 100.8   8.4 60.3   4.7 0.00 0.00 4.3 17.9   6.4 1650 SW | 234 48.7   0.6 67 10 - - - 0.0 - 3.02 3.46 0 - 28.4 1,814 12.5
Middletown-South 7/14/24 99.8   5.6 61.6   1.4 0.00 0.00 1.1 10.5   3.5 1440 SSE | 160 48.8   0.5 68 5 - - - 0.0 - 2.27 4.54 0 0.0 27.9 1,776 12.5
Jim Davis (Langtry) 7/14/24 99.0   5.8 66.2   4.1 0.00 0.00 3.3 15.5   0.7 1351 ESE | 110 47.3   2.2 54 12 686 0.272 2.03 0.0 - 5.09 5.11 60 - 31.3 2,066 12.7
Napa Basin 7/14/24 100.3   5.2 60.7   4.1 0.00 0.00 3.5 14.7   1.9 1531 SSW | 192 49.9   3.9 76 11 468 0.231 1.59 0.0 - 3.88 6.38 0 - 30.5 1,881 12.6
Lower Bohn 7/14/24 100.2   7.9 59.4   2.4 0.00 0.00 3.0 13.6   2.8 1459 SE | 134 48.8   2.7 73 10 635 0.266 1.93 0.0 - 2.95 6.10 0 - 29.9 1,878 12.6
Upper Bohn-North 7/14/24 102.4   3.8 63.8   2.3 0.00 0.00 2.4 12.1   2.4 1502 SE | 137 44.2   4.0 57 8 641 0.252 - 0.0 1,099 3.58 5.90 0 - 31.6 2,043 12.2
Upper Bohn-South 7/14/24 103.6   2.8 63.8   1.6 0.00 0.00 1.4 13.4   1.3 1514 SE | 124 - 39 15 560 0.209 - 0.0 1,062 3.10 6.65 0 - 31.2 2,063 12.2
Morgan Valley 7/14/24 94.2   7.7 72.8   1.8 0.00 0.00 3.7 17.4   0.4 0138 WNW | 294 48.6   1.7 52 10 758 0.285 2.20 0.0 - 16.45 0.00 100 - 33.0 1,952 12.7
Mine Pit North 7/14/24 98.3   6.6 68.2   0.2 - - 6.1 17.9   1.5 1639 SSW | 209 50.1   1.7 64 11 - - - - - - - - - - - 12.4
Mine Pit South 7/14/24 99.9   5.1 67.7   3.6 0.00 0.00 4.9 17.5   0.8 1322 SE | 144 42.9   3.5 45 7 - - - - - - - - - - - 12.3
Cow Mountain 7/14/24 90.0   5.4 73.4   1.5 0.00 0.00 5.7 16.4   5.5 1533 WSW | 255 - - - - - - 0.0 - - - - - - - 12.8
Ukiah-SE (Ruddick) 7/14/24 94.0   0.8 60.0   2.8 0.00 0.00 6.4 18.4   4.1 1350 SE | 141 51.1   3.6 71 16 684 0.270 1.82 0.0 - 3.23 0.00 0 0.0 25.3 1,611 12.9
Max   106.0 73.4 0.78 0.78 6.4 18.4 - - 56.4 86 16 758 0.297 2.20 0.0 - 16.45 7.65 - 0.0 33.6 - 12.9
Avg   - - - - 3.1 - - - 49.3 - - - - - 0.0 - 6.60 4.87 - - 30.8 - -
Min   90.0 57.5 0.00 0.00 1.1 9.7 - - 42.9 39 5 303 0.149 1.19 0.0 - 2.12 0.00 - 0.0 25.3 - 12.2